Time;durP1;ratioP1;P1;durP2;ratioP2;P2;SDS_P1;SDS_P2;PMS_P1;PMS_P2;Temp;Humidity;BMP_temperature;BMP_pressure;BME280_temperature;BME280_humidity;BME280_pressure;Samples;Min_cycle;Max_cycle;Signal;HPM_P1;HPM_P2
2022/12/03 00:00:31;;;;;;;19.48;14.02;;;;;;;5.79;100.00;98611.34;5000353;28;20459;-64
2022/12/03 00:02:56;;;;;;;24.70;16.35;;;;;;;5.97;100.00;98640.97;4983601;28;20129;-60
2022/12/03 00:05:22;;;;;;;21.17;15.55;;;;;;;6.10;100.00;98648.63;5000952;28;20038;-62
2022/12/03 00:07:47;;;;;;;23.60;14.80;;;;;;;6.05;100.00;98644.75;5002747;28;20056;-68
2022/12/03 00:10:13;;;;;;;21.00;14.82;;;;;;;6.10;100.00;98645.22;5004714;28;20068;-61
2022/12/03 00:12:38;;;;;;;20.30;14.23;;;;;;;5.81;100.00;98594.00;4999485;28;20037;-64
2022/12/03 00:15:05;;;;;;;19.33;14.20;;;;;;;6.09;100.00;98636.63;4999676;28;20113;-63
2022/12/03 00:17:30;;;;;;;24.63;15.88;;;;;;;5.93;100.00;98616.31;5017404;28;20116;-68
2022/12/03 00:19:56;;;;;;;22.48;15.93;;;;;;;6.11;100.00;98641.69;4995545;28;20662;-66
2022/12/03 00:22:21;;;;;;;23.92;15.68;;;;;;;6.11;100.00;98646.84;5014108;28;20026;-65
2022/12/03 00:24:47;;;;;;;24.15;16.55;;;;;;;6.07;100.00;98641.09;5010810;28;20032;-65
2022/12/03 00:27:12;;;;;;;23.00;16.25;;;;;;;5.72;100.00;98610.97;4992892;28;20116;-62
2022/12/03 00:29:38;;;;;;;22.58;15.43;;;;;;;5.81;100.00;98632.69;4997496;28;20421;-68
2022/12/03 00:32:03;;;;;;;22.02;16.02;;;;;;;5.78;100.00;98645.81;5004722;28;20062;-64
2022/12/03 00:34:29;;;;;;;23.88;16.13;;;;;;;5.69;100.00;98628.44;4997700;28;20489;-64
2022/12/03 00:36:54;;;;;;;20.45;15.48;;;;;;;5.87;100.00;98636.56;4995385;28;20048;-65
2022/12/03 00:39:19;;;;;;;20.77;14.98;;;;;;;5.89;100.00;98629.53;5007386;28;20121;-67
2022/12/03 00:41:45;;;;;;;21.27;15.55;;;;;;;5.86;100.00;98620.28;4998179;28;20085;-64
2022/12/03 00:44:10;;;;;;;19.60;14.13;;;;;;;5.88;100.00;98626.16;4996646;28;20818;-65
2022/12/03 00:46:36;;;;;;;20.63;15.45;;;;;;;5.86;100.00;98630.59;4994616;28;20026;-65
2022/12/03 00:49:02;;;;;;;22.17;16.05;;;;;;;5.62;100.00;98586.78;5003064;28;20041;-64
2022/12/03 00:51:27;;;;;;;22.05;15.93;;;;;;;5.78;100.00;98620.81;4999403;28;20026;-66
2022/12/03 00:53:52;;;;;;;18.83;13.63;;;;;;;5.37;100.00;98582.63;4999963;28;20503;-63
2022/12/03 00:56:18;;;;;;;20.10;14.18;;;;;;;5.71;100.00;98621.41;4999642;28;20709;-64
2022/12/03 00:58:43;;;;;;;20.60;14.35;;;;;;;5.66;100.00;98614.00;4994208;28;20137;-65
2022/12/03 01:01:08;;;;;;;21.35;14.20;;;;;;;5.68;100.00;98611.31;5021560;28;20030;-63
2022/12/03 01:03:34;;;;;;;21.15;14.85;;;;;;;5.46;100.00;98604.31;4999582;28;20046;-64
2022/12/03 01:06:00;;;;;;;20.20;14.55;;;;;;;5.51;100.00;98615.13;5013731;28;20485;-67
2022/12/03 01:08:25;;;;;;;21.15;14.10;;;;;;;5.39;100.00;98609.13;5003945;28;20064;-62
2022/12/03 01:10:50;;;;;;;20.88;14.77;;;;;;;5.12;100.00;98571.50;5004837;28;20040;-64
2022/12/03 01:13:16;;;;;;;20.25;14.38;;;;;;;5.33;100.00;98606.97;5002990;28;20038;-64
2022/12/03 01:15:41;;;;;;;21.95;15.15;;;;;;;5.25;100.00;98606.72;5015737;28;21225;-66
2022/12/03 01:18:07;;;;;;;22.80;15.88;;;;;;;5.24;100.00;98605.06;4997767;28;20568;-64
2022/12/03 01:20:32;;;;;;;25.52;16.13;;;;;;;4.99;100.00;98566.41;5000715;28;20029;-64
2022/12/03 01:22:57;;;;;;;23.23;15.85;;;;;;;5.23;100.00;98601.66;4999090;28;20034;-60
2022/12/03 01:25:23;;;;;;;25.70;15.75;;;;;;;5.27;100.00;98613.41;5016520;28;20030;-61
2022/12/03 01:27:48;;;;;;;23.33;15.88;;;;;;;5.04;100.00;98554.94;4988455;28;20542;-66
2022/12/03 01:30:13;;;;;;;22.58;15.60;;;;;;;5.36;100.00;98606.75;5014851;28;20054;-63
2022/12/03 01:32:39;;;;;;;24.42;15.60;;;;;;;5.31;100.00;98598.53;4997436;28;20034;-66
2022/12/03 01:35:05;;;;;;;23.30;15.00;;;;;;;5.38;100.00;98599.72;4995793;28;20507;-70
2022/12/03 01:37:30;;;;;;;23.45;15.68;;;;;;;5.35;100.00;98605.13;4992645;28;20465;-67
2022/12/03 01:39:56;;;;;;;22.75;15.02;;;;;;;5.20;100.00;98597.56;4987263;28;20038;-65
2022/12/03 01:42:24;;;;;;;22.42;15.27;;;;;;;5.24;100.00;98611.06;4992505;28;20038;-68
2022/12/03 01:44:52;;;;;;;25.33;16.13;;;;;;;5.23;100.00;98608.59;5011614;28;20026;-68
2022/12/03 01:47:19;;;;;;;24.92;15.63;;;;;;;5.27;100.00;98610.00;4987272;28;20037;-63
2022/12/03 01:49:58;;;;;;;23.75;15.88;;;;;;;5.02;100.00;98562.81;5012544;28;20038;-65
2022/12/03 01:52:26;;;;;;;24.98;16.80;;;;;;;5.27;100.00;98612.59;4995455;28;20124;-62
2022/12/03 01:54:59;;;;;;;23.77;15.95;;;;;;;5.26;100.00;98610.97;4996997;28;20040;-67
2022/12/03 01:57:34;;;;;;;22.35;14.82;;;;;;;5.22;100.00;98600.03;4992551;28;20126;-61
2022/12/03 02:00:00;;;;;;;25.17;15.82;;;;;;;5.26;100.00;98598.88;4997673;28;20029;-68
2022/12/03 02:02:28;;;;;;;23.25;15.80;;;;;;;5.00;100.00;98568.09;4990693;28;20532;-63
2022/12/03 02:04:54;;;;;;;23.65;14.73;;;;;;;5.09;100.00;98573.50;4998036;28;20124;-65
2022/12/03 02:07:28;;;;;;;21.08;14.48;;;;;;;5.33;100.00;98601.81;4997859;28;20113;-65
2022/12/03 02:09:57;;;;;;;20.98;13.75;;;;;;;5.30;100.00;98600.28;5017210;28;20110;-63
2022/12/03 02:12:31;;;;;;;21.17;12.48;;;;;;;5.29;100.00;98593.47;5004374;28;20493;-64
2022/12/03 02:14:56;;;;;;;22.60;15.07;;;;;;;5.32;100.00;98592.44;5003165;28;20571;-64
2022/12/03 02:17:22;;;;;;;23.13;14.73;;;;;;;5.32;100.00;98592.44;5000119;28;20037;-68
2022/12/03 02:19:48;;;;;;;23.45;15.57;;;;;;;5.20;100.00;98568.38;5004600;28;20034;-62
2022/12/03 02:22:55;;;;;;;23.00;14.80;;;;;;;5.39;100.00;98594.47;5001978;28;20117;-61
2022/12/03 02:25:30;;;;;;;19.25;11.95;;;;;;;5.38;100.00;98587.69;5000909;28;20075;-63
2022/12/03 02:27:57;;;;;;;20.35;13.13;;;;;;;5.05;100.00;98534.22;4999102;28;20372;-61
2022/12/03 02:30:24;;;;;;;24.52;14.35;;;;;;;5.36;100.00;98576.63;4980229;28;20042;-64
2022/12/03 02:32:50;;;;;;;22.92;14.65;;;;;;;5.31;100.00;98577.91;5001063;28;20042;-64
2022/12/03 02:35:25;;;;;;;20.08;13.60;;;;;;;5.29;100.00;98578.00;5003193;28;20168;-66
2022/12/03 02:38:18;;;;;;;19.73;11.80;;;;;;;5.35;100.00;98572.44;4979113;28;20764;-66
2022/12/03 02:40:45;;;;;;;21.80;12.65;;;;;;;5.35;100.00;98575.00;5005211;28;20511;-63
2022/12/03 02:43:11;;;;;;;21.10;14.48;;;;;;;5.33;100.00;98560.56;5002256;28;20026;-66
2022/12/03 02:45:48;;;;;;;21.60;13.50;;;;;;;5.23;100.00;98564.75;5002261;28;20041;-64
2022/12/03 02:48:23;;;;;;;22.85;13.75;;;;;;;5.20;100.00;98566.63;5015264;28;20370;-62
2022/12/03 02:50:52;;;;;;;20.55;13.35;;;;;;;5.23;100.00;98569.91;5015756;28;20652;-65
2022/12/03 02:53:41;;;;;;;21.45;13.32;;;;;;;5.15;100.00;98563.56;5002347;28;20022;-64
2022/12/03 02:56:07;;;;;;;24.20;14.40;;;;;;;5.27;100.00;98577.31;4998458;28;20042;-64
2022/12/03 02:58:33;;;;;;;24.02;15.77;;;;;;;5.29;100.00;98575.44;5017393;28;20121;-65
2022/12/03 03:00:59;;;;;;;22.88;13.90;;;;;;;5.24;100.00;98572.41;4986420;28;20042;-65
2022/12/03 03:03:27;;;;;;;22.75;14.35;;;;;;;5.22;100.00;98568.25;4990297;28;20072;-63
2022/12/03 03:05:52;;;;;;;21.60;13.80;;;;;;;5.22;100.00;98570.84;5009069;28;20038;-66
2022/12/03 03:08:18;;;;;;;22.40;14.50;;;;;;;5.24;100.00;98577.56;5005443;28;20036;-62
2022/12/03 03:10:44;;;;;;;22.00;14.30;;;;;;;5.22;100.00;98569.09;5004444;28;20061;-61
2022/12/03 03:13:12;;;;;;;22.50;13.68;;;;;;;5.30;100.00;98571.94;4998041;28;20026;-64
2022/12/03 03:15:39;;;;;;;20.88;13.00;;;;;;;5.32;100.00;98572.63;5015358;28;20033;-62
2022/12/03 03:18:06;;;;;;;20.17;13.02;;;;;;;5.26;100.00;98577.44;4980513;28;20033;-66
2022/12/03 03:20:31;;;;;;;20.90;13.75;;;;;;;5.32;100.00;98579.56;5001392;28;20034;-63
2022/12/03 03:23:06;;;;;;;21.77;13.85;;;;;;;5.36;100.00;98563.75;5001683;28;20037;-63
2022/12/03 03:25:31;;;;;;;20.05;13.85;;;;;;;5.38;100.00;98579.09;4982214;28;20045;-64
2022/12/03 03:27:57;;;;;;;19.30;13.30;;;;;;;5.38;100.00;98579.09;4997434;28;20085;-65
2022/12/03 03:30:22;;;;;;;22.85;14.80;;;;;;;5.37;100.00;98572.31;4996943;28;20033;-64
2022/12/03 03:32:47;;;;;;;20.60;13.18;;;;;;;5.44;100.00;98576.09;4999152;28;20038;-63
2022/12/03 03:35:13;;;;;;;21.65;13.35;;;;;;;5.41;100.00;98568.56;5002062;28;20029;-65
2022/12/03 03:37:39;;;;;;;21.80;12.95;;;;;;;5.38;100.00;98568.78;4994624;28;20030;-63
2022/12/03 03:40:05;;;;;;;20.05;12.88;;;;;;;5.49;100.00;98571.38;4996095;28;20125;-66
2022/12/03 03:42:31;;;;;;;23.70;13.80;;;;;;;5.47;100.00;98567.28;4997851;28;20037;-66
2022/12/03 03:44:57;;;;;;;21.15;12.77;;;;;;;5.45;100.00;98566.59;4999935;28;20412;-64
2022/12/03 03:47:22;;;;;;;21.83;14.00;;;;;;;5.43;100.00;98566.69;5003767;28;20488;-65
2022/12/03 03:49:49;;;;;;;22.60;13.43;;;;;;;5.36;100.00;98566.31;4990725;28;20093;-68
2022/12/03 03:52:15;;;;;;;20.33;13.18;;;;;;;5.42;100.00;98562.50;4986833;28;20030;-64
2022/12/03 03:54:41;;;;;;;18.80;12.10;;;;;;;5.39;100.00;98567.88;5001208;28;20034;-64
2022/12/03 03:57:06;;;;;;;19.42;11.82;;;;;;;5.33;100.00;98556.25;5000453;28;20042;-64
2022/12/03 03:59:32;;;;;;;17.40;11.73;;;;;;;5.11;100.00;98520.91;5017023;28;20580;-66
2022/12/03 04:01:57;;;;;;;19.35;12.73;;;;;;;5.34;100.00;98560.44;5001872;28;20524;-62
2022/12/03 04:04:25;;;;;;;17.20;11.98;;;;;;;5.38;100.00;98561.06;5000098;28;20430;-62
2022/12/03 04:06:51;;;;;;;21.10;13.32;;;;;;;5.22;100.00;98545.06;4985939;28;20037;-65
2022/12/03 04:09:16;;;;;;;20.00;13.30;;;;;;;5.32;100.00;98558.94;5000913;28;20041;-67
2022/12/03 04:14:26;;;;;;;20.65;12.70;;;;;;;5.23;100.00;98544.16;4995910;28;20044;-62
2022/12/03 04:16:51;;;;;;;19.23;11.93;;;;;;;5.38;100.00;98550.75;5003086;28;20030;-63
2022/12/03 04:19:16;;;;;;;20.13;12.90;;;;;;;5.30;100.00;98546.16;5004604;28;20153;-68
2022/12/03 04:24:26;;;;;;;19.58;12.90;;;;;;;5.35;100.00;98545.81;5002362;28;20764;-61
2022/12/03 04:29:35;;;;;;;20.42;12.85;;;;;;;5.15;100.00;98499.13;4996297;28;20103;-64
2022/12/03 04:37:29;;;;;;;18.65;11.70;;;;;;;5.41;100.00;98541.97;5015730;28;20040;-65
2022/12/03 04:39:54;;;;;;;18.75;12.13;;;;;;;5.45;100.00;98548.53;5000263;28;20477;-64
2022/12/03 04:42:20;;;;;;;21.40;11.88;;;;;;;5.41;100.00;98537.63;4997866;28;20124;-66
2022/12/03 04:44:46;;;;;;;18.63;10.82;;;;;;;5.50;100.00;98549.84;4998705;28;20026;-62
2022/12/03 04:47:14;;;;;;;17.50;11.10;;;;;;;5.40;100.00;98533.41;5002398;28;20057;-64
2022/12/03 04:49:50;;;;;;;18.05;12.30;;;;;;;5.36;100.00;98542.28;4996372;28;20038;-65
2022/12/03 04:52:18;;;;;;;15.52;9.93;;;;;;;5.35;100.00;98543.25;4996866;28;20115;-64
2022/12/03 04:54:44;;;;;;;20.20;11.73;;;;;;;5.27;100.00;98530.91;4983227;28;20034;-67
2022/12/03 04:57:10;;;;;;;21.70;13.02;;;;;;;5.26;100.00;98538.78;4998358;28;20041;-64
2022/12/03 04:59:36;;;;;;;20.33;13.02;;;;;;;5.22;100.00;98537.34;4998500;28;20073;-63
2022/12/03 05:02:02;;;;;;;20.10;12.82;;;;;;;5.31;100.00;98541.81;5008007;28;20485;-64
2022/12/03 05:04:28;;;;;;;21.30;12.30;;;;;;;5.01;100.00;98484.66;4979207;28;20034;-61
2022/12/03 05:06:53;;;;;;;19.13;12.32;;;;;;;5.35;100.00;98540.66;5022362;28;20026;-62
2022/12/03 05:09:19;;;;;;;17.58;10.23;;;;;;;5.41;100.00;98545.38;5000030;28;20531;-65
2022/12/03 05:11:44;;;;;;;19.55;11.73;;;;;;;5.38;100.00;98543.00;4999140;28;20044;-66
2022/12/03 05:14:10;;;;;;;20.65;11.63;;;;;;;5.38;100.00;98546.41;5000300;28;20030;-64
2022/12/03 05:16:36;;;;;;;19.17;11.90;;;;;;;5.09;100.00;98497.00;5005658;28;20087;-63
2022/12/03 05:19:03;;;;;;;16.13;10.55;;;;;;;5.36;100.00;98539.72;4986637;28;20037;-65
2022/12/03 05:21:28;;;;;;;21.05;13.15;;;;;;;5.36;100.00;98542.28;5003393;28;20033;-61
2022/12/03 05:23:54;;;;;;;20.35;12.80;;;;;;;5.39;100.00;98537.72;5005675;28;20456;-63
2022/12/03 05:26:19;;;;;;;18.85;11.45;;;;;;;5.31;100.00;98528.91;5004013;28;20061;-64
2022/12/03 05:28:45;;;;;;;15.45;10.35;;;;;;;5.29;100.00;98531.59;4998850;28;20061;-62
2022/12/03 05:31:10;;;;;;;19.90;12.98;;;;;;;5.27;100.00;98523.16;5006624;28;20819;-64
2022/12/03 05:33:36;;;;;;;20.35;12.68;;;;;;;5.32;100.00;98523.66;5004202;28;20049;-67
2022/12/03 05:36:01;;;;;;;17.73;11.02;;;;;;;5.37;100.00;98528.47;4986035;28;20029;-67
2022/12/03 05:38:26;;;;;;;20.17;11.73;;;;;;;5.34;100.00;98533.84;5001356;28;20092;-64
2022/12/03 05:40:52;;;;;;;18.55;11.88;;;;;;;5.32;100.00;98518.50;5000581;28;20034;-68
2022/12/03 05:43:17;;;;;;;16.70;11.10;;;;;;;5.35;100.00;98512.31;5003371;28;20034;-62
2022/12/03 05:45:43;;;;;;;17.08;10.98;;;;;;;5.40;100.00;98525.66;5018094;28;20018;-63
2022/12/03 05:48:11;;;;;;;17.60;11.30;;;;;;;5.25;100.00;98516.50;5011784;28;20048;-66
2022/12/03 05:50:38;;;;;;;16.45;10.23;;;;;;;5.30;100.00;98524.72;4999590;28;20034;-67
2022/12/03 05:53:04;;;;;;;16.75;10.75;;;;;;;5.18;100.00;98485.19;4983086;28;20042;-64
2022/12/03 05:55:29;;;;;;;15.65;10.40;;;;;;;5.33;100.00;98506.41;5016821;28;20030;-65
2022/12/03 05:57:55;;;;;;;14.40;9.30;;;;;;;5.45;100.00;98518.41;5003743;28;20092;-64
2022/12/03 06:00:32;;;;;;;16.98;10.48;;;;;;;5.51;100.00;98511.97;5013696;28;20030;-65
2022/12/03 06:02:57;;;;;;;16.30;10.00;;;;;;;5.44;100.00;98496.16;5015263;28;20111;-63
2022/12/03 06:05:23;;;;;;;15.10;10.20;;;;;;;5.53;100.00;98510.94;5017946;28;20058;-66
2022/12/03 06:07:51;;;;;;;14.75;9.63;;;;;;;5.52;100.00;98504.13;4982122;28;20034;-69
2022/12/03 06:10:20;;;;;;;14.88;9.77;;;;;;;5.44;100.00;98493.56;4986098;28;20026;-67
2022/12/03 06:12:46;;;;;;;18.33;10.68;;;;;;;5.19;100.00;98469.59;5002004;28;20034;-63
2022/12/03 06:15:12;;;;;;;15.25;9.57;;;;;;;5.16;100.00;98453.53;5017281;28;20755;-66
2022/12/03 06:17:38;;;;;;;17.70;10.52;;;;;;;5.43;100.00;98520.28;4985674;28;20164;-63
2022/12/03 06:20:04;;;;;;;15.85;9.60;;;;;;;5.46;100.00;98517.47;5002807;28;20623;-65
2022/12/03 06:22:29;;;;;;;16.60;10.75;;;;;;;5.48;100.00;98518.19;5017488;28;20156;-66
2022/12/03 06:24:55;;;;;;;17.83;11.10;;;;;;;5.44;100.00;98513.34;5017256;28;20038;-63
2022/12/03 06:27:20;;;;;;;17.15;10.48;;;;;;;5.38;100.00;98510.31;5016913;28;20731;-64
2022/12/03 06:29:46;;;;;;;18.52;11.13;;;;;;;5.44;100.00;98521.94;5002205;28;20038;-63
2022/12/03 06:32:11;;;;;;;16.48;10.95;;;;;;;5.38;100.00;98504.31;4999463;28;20087;-66
2022/12/03 06:34:36;;;;;;;16.80;10.68;;;;;;;5.41;100.00;98498.94;5001943;28;20026;-62
2022/12/03 06:37:02;;;;;;;18.27;10.65;;;;;;;5.13;100.00;98451.19;5001354;28;20045;-68
2022/12/03 06:39:27;;;;;;;14.35;8.82;;;;;;;5.37;100.00;98500.13;5002828;28;20105;-62
2022/12/03 06:41:53;;;;;;;17.23;10.60;;;;;;;5.46;100.00;98507.16;5006410;28;20036;-63
2022/12/03 06:44:18;;;;;;;17.25;10.60;;;;;;;5.48;100.00;98507.06;5020487;28;20065;-67
2022/12/03 06:46:43;;;;;;;16.02;9.90;;;;;;;5.52;100.00;98514.44;5002880;28;20052;-61
2022/12/03 06:49:09;;;;;;;14.73;9.10;;;;;;;5.46;100.00;98506.31;5013982;28;20555;-63
2022/12/03 06:51:35;;;;;;;14.45;8.90;;;;;;;5.54;100.00;98515.13;5003891;28;20034;-67
2022/12/03 06:54:01;;;;;;;12.88;8.57;;;;;;;5.56;100.00;98502.13;4999114;28;20092;-64
2022/12/03 06:56:27;;;;;;;13.63;8.05;;;;;;;5.62;100.00;98493.09;5013884;28;20079;-66
2022/12/03 06:58:52;;;;;;;13.23;8.57;;;;;;;5.71;99.38;98495.81;5021245;28;20481;-66
2022/12/03 07:01:18;;;;;;;12.80;8.02;;;;;;;5.73;96.55;98493.94;5007582;28;20125;-63
2022/12/03 07:03:43;;;;;;;12.07;6.65;;;;;;;5.83;97.65;98488.91;5005668;28;20028;-61
2022/12/03 07:06:09;;;;;;;12.13;7.53;;;;;;;5.92;95.57;98498.50;5008407;28;20044;-67
2022/12/03 07:08:34;;;;;;;11.80;7.28;;;;;;;5.93;95.69;98502.75;5006540;28;21035;-64
2022/12/03 07:11:00;;;;;;;12.15;7.28;;;;;;;5.97;95.12;98506.75;5005485;28;20140;-66
2022/12/03 07:13:25;;;;;;;9.95;6.03;;;;;;;5.94;94.72;98508.72;5018846;28;20167;-67
2022/12/03 07:15:51;;;;;;;11.77;7.22;;;;;;;6.02;94.58;98516.72;5004582;28;20524;-64
2022/12/03 07:18:16;;;;;;;11.80;6.95;;;;;;;5.98;95.03;98512.72;5025656;28;20026;-65
2022/12/03 07:20:42;;;;;;;10.95;6.63;;;;;;;5.97;96.72;98508.53;5005185;28;20092;-65
2022/12/03 07:23:07;;;;;;;12.38;6.88;;;;;;;5.97;95.99;98503.38;5001878;28;20030;-63
2022/12/03 07:25:32;;;;;;;11.13;6.28;;;;;;;6.08;95.84;98512.88;5018554;28;20029;-64
2022/12/03 07:27:58;;;;;;;10.18;6.72;;;;;;;6.01;97.11;98514.28;4996440;28;20041;-65
2022/12/03 07:30:24;;;;;;;11.35;7.50;;;;;;;6.04;96.53;98522.59;5019878;28;20037;-61
2022/12/03 07:32:50;;;;;;;12.27;7.20;;;;;;;5.73;95.96;98469.88;5026179;28;20021;-65
2022/12/03 07:35:15;;;;;;;11.00;6.50;;;;;;;6.04;97.72;98519.19;5008278;28;20552;-62
2022/12/03 07:37:41;;;;;;;12.18;7.25;;;;;;;6.04;97.81;98522.59;5003812;28;20542;-66
2022/12/03 07:40:07;;;;;;;14.45;8.23;;;;;;;6.03;98.72;98523.53;5008755;28;20511;-67
2022/12/03 07:42:32;;;;;;;13.93;7.93;;;;;;;6.05;99.67;98519.06;5015677;28;20109;-67
2022/12/03 07:44:58;;;;;;;15.20;8.40;;;;;;;5.97;99.02;98504.19;4991566;28;20032;-63
2022/12/03 07:47:23;;;;;;;12.75;7.90;;;;;;;6.03;99.91;98512.38;5023930;28;20476;-62
2022/12/03 07:49:48;;;;;;;11.63;7.57;;;;;;;6.01;99.04;98504.75;4985553;28;20563;-68
2022/12/03 07:52:14;;;;;;;13.70;8.88;;;;;;;6.04;99.98;98501.13;5028012;28;20105;-65
2022/12/03 07:54:39;;;;;;;12.65;7.65;;;;;;;6.22;100.00;98515.16;5003904;28;20542;-64
2022/12/03 07:57:05;;;;;;;12.48;7.70;;;;;;;6.23;100.00;98508.28;5000631;28;20041;-67
2022/12/03 07:59:30;;;;;;;12.30;7.38;;;;;;;6.08;100.00;98467.22;4997406;28;20505;-63
2022/12/03 08:01:55;;;;;;;12.57;8.02;;;;;;;6.32;99.33;98510.94;4998156;28;20042;-62
2022/12/03 08:04:21;;;;;;;13.10;8.55;;;;;;;5.95;98.46;98469.06;4999250;28;20038;-63
2022/12/03 08:06:47;;;;;;;13.27;9.20;;;;;;;6.21;98.65;98508.38;5017531;28;20057;-66
2022/12/03 08:09:13;;;;;;;14.15;9.10;;;;;;;6.27;97.58;98504.50;5016032;28;20034;-64
2022/12/03 08:11:39;;;;;;;13.15;8.63;;;;;;;6.32;97.23;98512.72;4993934;28;20041;-66
2022/12/03 08:14:12;;;;;;;14.23;8.57;;;;;;;6.19;96.87;98502.53;4996186;28;20042;-67
2022/12/03 08:16:39;;;;;;;16.05;9.02;;;;;;;6.28;97.43;98511.28;4983476;28;20021;-63
2022/12/03 08:19:10;;;;;;;14.13;8.55;;;;;;;6.29;97.08;98512.94;5000361;28;20065;-64
2022/12/03 08:21:36;;;;;;;12.80;7.93;;;;;;;6.07;96.61;98459.59;4991575;28;20033;-61
2022/12/03 08:24:15;;;;;;;13.60;8.70;;;;;;;6.12;96.00;98462.63;5000385;28;21750;-65
2022/12/03 08:26:43;;;;;;;;;;;;;;;6.34;95.44;98501.31;4980525;28;20112;-65
2022/12/03 08:29:10;;;;;;;12.55;7.45;;;;;;;6.35;94.75;98500.38;4999563;28;19985;-66
2022/12/03 08:31:35;;;;;;;13.95;8.82;;;;;;;6.37;94.96;98505.44;5002714;28;20028;-65
2022/12/03 08:34:19;;;;;;;13.65;8.73;;;;;;;6.40;95.53;98505.16;5002796;28;20275;-65
2022/12/03 08:36:45;;;;;;;15.95;8.77;;;;;;;6.41;94.92;98511.19;4998933;28;20077;-66
2022/12/03 08:39:32;;;;;;;12.93;8.15;;;;;;;6.45;93.88;98507.41;5020664;28;20030;-65
2022/12/03 08:45:17;;;;;;;12.50;8.40;;;;;;;6.45;94.72;98515.97;5002941;28;20084;-66
2022/12/03 08:47:42;;;;;;;12.80;7.60;;;;;;;6.39;94.24;98503.53;5017149;28;20029;-63
2022/12/03 08:50:27;;;;;;;15.57;8.70;;;;;;;6.13;92.88;98462.50;5002287;28;20069;-64
2022/12/03 08:52:53;;;;;;;13.10;7.55;;;;;;;6.48;93.56;98507.13;5014253;28;20455;-65
2022/12/03 08:55:32;;;;;;;12.50;8.27;;;;;;;6.17;94.03;98465.69;5014950;28;20052;-63
2022/12/03 08:57:58;;;;;;;11.48;7.40;;;;;;;6.41;92.32;98493.91;5011441;28;20037;-62
2022/12/03 09:00:24;;;;;;;10.98;7.60;;;;;;;6.46;92.05;98503.84;5016880;28;20034;-62
2022/12/03 09:02:54;;;;;;;14.32;8.77;;;;;;;6.45;92.24;98508.22;5016185;28;20033;-61
2022/12/03 09:05:21;;;;;;;10.07;6.65;;;;;;;6.51;93.06;98512.06;4986146;28;20034;-69
2022/12/03 09:07:47;;;;;;;14.35;9.02;;;;;;;6.47;92.66;98500.34;5014925;28;20033;-66
2022/12/03 09:10:13;;;;;;;14.55;8.30;;;;;;;6.40;91.40;98488.84;4997561;28;20044;-64
2022/12/03 09:12:38;;;;;;;19.40;10.95;;;;;;;6.43;92.64;98497.19;5014424;28;20440;-64
2022/12/03 09:15:04;;;;;;;17.55;10.43;;;;;;;6.50;93.22;98513.03;5002545;28;20034;-62
2022/12/03 09:17:29;;;;;;;14.07;8.35;;;;;;;6.49;92.22;98511.38;5008875;28;20794;-64
2022/12/03 09:19:55;;;;;;;16.98;9.90;;;;;;;6.51;91.91;98512.06;4989541;28;20029;-62
2022/12/03 09:22:20;;;;;;;15.05;8.35;;;;;;;6.48;92.99;98513.16;5003909;28;20037;-65
2022/12/03 09:24:46;;;;;;;14.13;8.88;;;;;;;6.42;92.95;98505.06;5012595;28;20737;-64
2022/12/03 09:27:11;;;;;;;14.20;9.32;;;;;;;6.45;93.15;98515.16;4998427;28;20319;-62
2022/12/03 09:29:37;;;;;;;13.80;9.00;;;;;;;6.51;93.18;98514.66;4997242;28;20040;-63
2022/12/03 09:32:03;;;;;;;12.43;7.55;;;;;;;6.48;90.80;98512.31;4998604;28;20049;-66
2022/12/03 09:34:28;;;;;;;11.85;7.32;;;;;;;6.58;91.74;98518.41;5011353;28;20037;-65
2022/12/03 09:36:53;;;;;;;12.00;7.88;;;;;;;6.24;91.63;98473.75;5001909;28;20036;-62
2022/12/03 09:39:19;;;;;;;10.55;6.78;;;;;;;6.51;90.51;98520.63;4996582;28;20045;-66
2022/12/03 09:41:44;;;;;;;11.27;7.43;;;;;;;6.62;89.42;98514.63;5015025;28;20030;-64
2022/12/03 09:44:10;;;;;;;12.63;7.75;;;;;;;6.58;91.16;98517.59;4985789;28;20702;-64
2022/12/03 09:46:36;;;;;;;13.32;7.55;;;;;;;6.59;89.55;98514.88;5005335;28;20029;-64
2022/12/03 09:49:04;;;;;;;11.20;6.65;;;;;;;6.58;88.85;98513.22;5001644;28;20037;-65
2022/12/03 09:51:32;;;;;;;10.82;7.10;;;;;;;6.49;89.66;98498.47;5010627;28;20865;-64
2022/12/03 09:54:03;;;;;;;11.65;7.03;;;;;;;6.61;88.86;98505.25;4985927;28;20469;-69
2022/12/03 09:56:29;;;;;;;10.15;6.05;;;;;;;6.62;88.74;98511.22;5002342;28;20034;-63
2022/12/03 09:58:55;;;;;;;10.20;6.20;;;;;;;6.62;88.42;98498.31;4996060;28;20080;-63
2022/12/03 10:01:21;;;;;;;10.00;6.57;;;;;;;6.66;88.85;98507.44;5010919;28;20429;-65
2022/12/03 10:03:48;;;;;;;10.10;6.40;;;;;;;6.71;88.29;98503.56;4988339;28;20493;-65
2022/12/03 10:06:22;;;;;;;10.30;6.53;;;;;;;6.74;88.68;98507.66;5000061;28;20027;-63
2022/12/03 10:08:50;;;;;;;10.18;6.10;;;;;;;6.74;87.69;98505.91;4995630;28;20068;-64
2022/12/03 10:11:17;;;;;;;11.77;7.28;;;;;;;6.69;88.05;98489.94;5005270;28;20033;-62
2022/12/03 10:13:43;;;;;;;11.15;6.82;;;;;;;6.78;88.72;98497.91;5002291;28;20071;-63
2022/12/03 10:16:11;;;;;;;10.35;6.80;;;;;;;6.80;88.45;98491.66;5028055;28;20542;-67
2022/12/03 10:18:39;;;;;;;11.68;6.88;;;;;;;6.80;87.93;98486.50;5009281;28;20034;-68
2022/12/03 10:21:31;;;;;;;12.25;7.28;;;;;;;6.79;88.40;98468.53;4990186;28;20168;-63
2022/12/03 10:24:15;;;;;;;12.82;7.13;;;;;;;6.86;88.04;98480.84;5005523;28;20050;-63
2022/12/03 10:26:41;;;;;;;12.88;7.35;;;;;;;6.77;89.15;98476.41;5025666;28;20022;-66
2022/12/03 10:29:17;;;;;;;10.75;6.70;;;;;;;6.85;87.90;98480.97;4988237;28;20590;-65
2022/12/03 10:31:42;;;;;;;11.82;6.28;;;;;;;6.83;90.67;98475.09;5020472;28;20112;-63
2022/12/03 10:34:08;;;;;;;11.55;6.90;;;;;;;6.78;91.33;98470.28;5007389;28;20135;-65
2022/12/03 10:36:34;;;;;;;11.52;7.30;;;;;;;6.73;93.97;98472.41;5007480;28;20546;-65
2022/12/03 10:39:13;;;;;;;12.27;8.15;;;;;;;6.44;95.00;98423.09;5003381;28;20029;-73
2022/12/03 10:41:40;;;;;;;12.10;8.17;;;;;;;6.76;94.92;98472.19;5000823;28;20044;-63
2022/12/03 10:44:24;;;;;;;11.52;7.40;;;;;;;6.70;95.74;98455.41;5016888;28;20026;-63
2022/12/03 10:47:10;;;;;;;13.95;7.32;;;;;;;6.66;97.29;98459.19;4983532;28;20029;-68
2022/12/03 10:49:37;;;;;;;11.98;6.72;;;;;;;6.61;97.75;98455.31;5015444;28;20030;-65
2022/12/03 10:52:02;;;;;;;12.40;6.72;;;;;;;6.50;98.21;98441.50;5000254;28;20041;-65
2022/12/03 10:54:30;;;;;;;11.63;7.25;;;;;;;6.51;97.72;98453.47;5000987;28;20046;-63
2022/12/03 10:56:56;;;;;;;13.68;7.55;;;;;;;6.40;97.61;98438.00;4988976;28;20030;-64
2022/12/03 10:59:25;;;;;;;16.75;8.90;;;;;;;6.47;99.13;98452.09;5012893;28;20156;-64
2022/12/03 11:01:51;;;;;;;13.98;8.00;;;;;;;6.45;100.00;98448.81;4999051;28;20044;-65
2022/12/03 11:04:20;;;;;;;15.90;9.77;;;;;;;6.10;100.00;98399.97;5017395;28;20780;-65
2022/12/03 11:06:46;;;;;;;14.02;7.30;;;;;;;6.41;100.00;98450.00;5014003;28;20033;-62
2022/12/03 11:09:19;;;;;;;16.60;8.32;;;;;;;6.33;100.00;98442.88;5017525;28;20511;-63
2022/12/03 11:11:44;;;;;;;14.18;7.90;;;;;;;6.12;100.00;98401.47;5012099;28;20036;-61
2022/12/03 11:14:10;;;;;;;13.50;7.57;;;;;;;6.33;100.00;98440.28;4997812;28;20025;-63
2022/12/03 11:16:38;;;;;;;12.02;6.68;;;;;;;6.26;100.00;98436.56;4996736;28;20045;-63
2022/12/03 11:19:16;;;;;;;11.07;6.28;;;;;;;6.32;100.00;98430.06;5012879;28;20037;-64
2022/12/03 11:22:08;;;;;;;9.43;5.28;;;;;;;6.17;100.00;98432.13;5013774;28;20058;-63
2022/12/03 11:24:36;;;;;;;9.88;5.10;;;;;;;6.06;100.00;98440.69;4999487;28;20475;-60
2022/12/03 11:27:01;;;;;;;9.30;5.25;;;;;;;6.06;100.00;98434.69;4998663;28;20108;-62
2022/12/03 11:29:48;;;;;;;10.50;5.68;;;;;;;5.99;100.00;98431.78;5006967;28;20029;-60
2022/12/03 11:32:42;;;;;;;11.02;5.40;;;;;;;6.03;100.00;98427.22;5013088;28;20500;-61
2022/12/03 11:35:14;;;;;;;9.13;5.15;;;;;;;6.00;100.00;98435.19;4997738;28;20026;-64
2022/12/03 11:37:39;;;;;;;10.77;5.20;;;;;;;5.71;100.00;98394.38;5020559;28;20038;-62
2022/12/03 11:40:17;;;;;;;7.47;3.72;;;;;;;5.89;100.00;98438.56;4985849;28;20018;-62
2022/12/03 11:42:44;;;;;;;10.23;4.75;;;;;;;5.85;100.00;98425.09;5017790;28;20033;-62